sensor_id;sensor_type;location;lat;lon;timestamp;P1;durP1;ratioP1;P2;durP2;ratioP2
3066;SDS011;1544;48.834;9.194;2023-04-06T00:01:57;8.03;;;7.13;;
3066;SDS011;1544;48.834;9.194;2023-04-06T00:04:32;11.10;;;7.40;;
3066;SDS011;1544;48.834;9.194;2023-04-06T00:07:07;8.63;;;6.57;;
3066;SDS011;1544;48.834;9.194;2023-04-06T00:09:42;7.97;;;7.10;;
3066;SDS011;1544;48.834;9.194;2023-04-06T00:12:17;8.40;;;7.60;;
3066;SDS011;1544;48.834;9.194;2023-04-06T00:14:52;9.30;;;7.20;;
3066;SDS011;1544;48.834;9.194;2023-04-06T00:17:28;12.27;;;7.50;;
3066;SDS011;1544;48.834;9.194;2023-04-06T00:20:04;12.30;;;7.50;;
3066;SDS011;1544;48.834;9.194;2023-04-06T00:22:41;8.40;;;7.20;;
3066;SDS011;1544;48.834;9.194;2023-04-06T00:25:17;9.80;;;7.13;;
3066;SDS011;1544;48.834;9.194;2023-04-06T00:27:52;9.63;;;7.50;;
3066;SDS011;1544;48.834;9.194;2023-04-06T00:30:27;14.53;;;7.90;;
3066;SDS011;1544;48.834;9.194;2023-04-06T00:33:02;12.27;;;8.43;;
3066;SDS011;1544;48.834;9.194;2023-04-06T00:35:37;13.63;;;8.47;;
3066;SDS011;1544;48.834;9.194;2023-04-06T00:38:13;10.00;;;8.63;;
3066;SDS011;1544;48.834;9.194;2023-04-06T00:40:49;10.03;;;9.03;;
3066;SDS011;1544;48.834;9.194;2023-04-06T00:43:24;9.50;;;8.50;;
3066;SDS011;1544;48.834;9.194;2023-04-06T00:46:00;12.00;;;9.60;;
3066;SDS011;1544;48.834;9.194;2023-04-06T00:48:35;13.77;;;9.53;;
3066;SDS011;1544;48.834;9.194;2023-04-06T00:51:10;13.83;;;10.70;;
3066;SDS011;1544;48.834;9.194;2023-04-06T00:53:45;13.20;;;9.90;;
3066;SDS011;1544;48.834;9.194;2023-04-06T00:56:20;12.30;;;9.60;;
3066;SDS011;1544;48.834;9.194;2023-04-06T00:58:58;11.60;;;9.00;;
3066;SDS011;1544;48.834;9.194;2023-04-06T01:01:34;14.17;;;10.07;;
3066;SDS011;1544;48.834;9.194;2023-04-06T01:04:17;11.00;;;9.43;;
3066;SDS011;1544;48.834;9.194;2023-04-06T01:06:52;19.57;;;11.00;;
3066;SDS011;1544;48.834;9.194;2023-04-06T01:09:34;13.23;;;9.90;;
3066;SDS011;1544;48.834;9.194;2023-04-06T01:12:14;14.73;;;9.87;;
3066;SDS011;1544;48.834;9.194;2023-04-06T01:14:49;12.03;;;10.00;;
3066;SDS011;1544;48.834;9.194;2023-04-06T01:17:25;14.52;;;10.27;;
3066;SDS011;1544;48.834;9.194;2023-04-06T01:20:00;13.07;;;9.83;;
3066;SDS011;1544;48.834;9.194;2023-04-06T01:22:38;10.40;;;9.27;;
3066;SDS011;1544;48.834;9.194;2023-04-06T01:25:13;11.33;;;9.33;;
3066;SDS011;1544;48.834;9.194;2023-04-06T01:27:59;12.80;;;9.87;;
3066;SDS011;1544;48.834;9.194;2023-04-06T01:30:55;12.50;;;9.77;;
3066;SDS011;1544;48.834;9.194;2023-04-06T01:33:47;13.10;;;10.63;;
3066;SDS011;1544;48.834;9.194;2023-04-06T01:36:25;14.00;;;10.93;;
3066;SDS011;1544;48.834;9.194;2023-04-06T01:39:20;13.70;;;9.80;;
3066;SDS011;1544;48.834;9.194;2023-04-06T01:41:55;16.48;;;10.52;;
3066;SDS011;1544;48.834;9.194;2023-04-06T01:44:31;14.63;;;11.17;;
3066;SDS011;1544;48.834;9.194;2023-04-06T01:47:14;14.18;;;11.20;;
3066;SDS011;1544;48.834;9.194;2023-04-06T01:49:51;13.07;;;10.68;;
3066;SDS011;1544;48.834;9.194;2023-04-06T01:52:26;14.23;;;10.55;;
3066;SDS011;1544;48.834;9.194;2023-04-06T01:55:01;13.18;;;10.13;;
3066;SDS011;1544;48.834;9.194;2023-04-06T01:57:55;11.48;;;10.05;;
3066;SDS011;1544;48.834;9.194;2023-04-06T02:00:39;11.98;;;9.50;;
3066;SDS011;1544;48.834;9.194;2023-04-06T02:03:15;11.70;;;9.10;;
3066;SDS011;1544;48.834;9.194;2023-04-06T02:05:51;17.70;;;10.20;;
3066;SDS011;1544;48.834;9.194;2023-04-06T02:08:34;12.50;;;10.45;;
3066;SDS011;1544;48.834;9.194;2023-04-06T02:11:09;13.18;;;10.48;;
3066;SDS011;1544;48.834;9.194;2023-04-06T02:13:50;13.27;;;10.63;;
3066;SDS011;1544;48.834;9.194;2023-04-06T02:16:25;16.25;;;10.93;;
3066;SDS011;1544;48.834;9.194;2023-04-06T02:19:00;10.98;;;9.88;;
3066;SDS011;1544;48.834;9.194;2023-04-06T02:21:35;12.70;;;10.25;;
3066;SDS011;1544;48.834;9.194;2023-04-06T02:24:10;14.10;;;11.40;;
3066;SDS011;1544;48.834;9.194;2023-04-06T02:26:45;11.20;;;9.43;;
3066;SDS011;1544;48.834;9.194;2023-04-06T02:29:20;14.52;;;10.63;;
3066;SDS011;1544;48.834;9.194;2023-04-06T02:31:55;12.98;;;9.80;;
3066;SDS011;1544;48.834;9.194;2023-04-06T02:34:31;14.93;;;11.05;;
3066;SDS011;1544;48.834;9.194;2023-04-06T02:37:06;12.50;;;10.40;;
3066;SDS011;1544;48.834;9.194;2023-04-06T02:39:43;11.27;;;10.07;;
3066;SDS011;1544;48.834;9.194;2023-04-06T02:42:18;14.90;;;10.70;;
3066;SDS011;1544;48.834;9.194;2023-04-06T02:44:55;14.82;;;11.07;;
3066;SDS011;1544;48.834;9.194;2023-04-06T02:47:34;14.43;;;10.40;;
3066;SDS011;1544;48.834;9.194;2023-04-06T02:50:10;17.15;;;10.25;;
3066;SDS011;1544;48.834;9.194;2023-04-06T02:52:54;14.10;;;10.23;;
3066;SDS011;1544;48.834;9.194;2023-04-06T02:55:31;13.75;;;10.35;;
3066;SDS011;1544;48.834;9.194;2023-04-06T02:58:05;16.05;;;10.73;;
3066;SDS011;1544;48.834;9.194;2023-04-06T03:00:50;12.30;;;10.07;;
3066;SDS011;1544;48.834;9.194;2023-04-06T03:03:25;15.05;;;11.25;;
3066;SDS011;1544;48.834;9.194;2023-04-06T03:06:00;11.55;;;10.35;;
3066;SDS011;1544;48.834;9.194;2023-04-06T03:08:37;12.00;;;10.43;;
3066;SDS011;1544;48.834;9.194;2023-04-06T03:11:12;12.65;;;9.60;;
3066;SDS011;1544;48.834;9.194;2023-04-06T03:13:49;13.85;;;11.00;;
3066;SDS011;1544;48.834;9.194;2023-04-06T03:16:24;14.52;;;10.73;;
3066;SDS011;1544;48.834;9.194;2023-04-06T03:19:00;14.20;;;10.75;;
3066;SDS011;1544;48.834;9.194;2023-04-06T03:21:38;14.05;;;10.55;;
3066;SDS011;1544;48.834;9.194;2023-04-06T03:24:14;13.77;;;10.73;;
3066;SDS011;1544;48.834;9.194;2023-04-06T03:26:49;14.15;;;11.27;;
3066;SDS011;1544;48.834;9.194;2023-04-06T03:29:25;12.25;;;10.80;;
3066;SDS011;1544;48.834;9.194;2023-04-06T03:32:01;12.80;;;10.70;;
3066;SDS011;1544;48.834;9.194;2023-04-06T03:34:41;15.65;;;11.88;;
3066;SDS011;1544;48.834;9.194;2023-04-06T03:37:16;14.20;;;10.73;;
3066;SDS011;1544;48.834;9.194;2023-04-06T03:39:56;16.58;;;11.65;;
3066;SDS011;1544;48.834;9.194;2023-04-06T03:42:32;17.10;;;11.60;;
3066;SDS011;1544;48.834;9.194;2023-04-06T03:45:16;11.88;;;10.15;;
3066;SDS011;1544;48.834;9.194;2023-04-06T03:47:56;14.52;;;11.10;;
3066;SDS011;1544;48.834;9.194;2023-04-06T03:50:31;13.77;;;10.95;;
3066;SDS011;1544;48.834;9.194;2023-04-06T03:53:06;17.60;;;12.30;;
3066;SDS011;1544;48.834;9.194;2023-04-06T03:55:42;25.15;;;18.25;;
3066;SDS011;1544;48.834;9.194;2023-04-06T03:58:18;15.85;;;11.90;;
3066;SDS011;1544;48.834;9.194;2023-04-06T04:00:52;15.02;;;12.13;;
3066;SDS011;1544;48.834;9.194;2023-04-06T04:03:27;15.00;;;12.43;;
3066;SDS011;1544;48.834;9.194;2023-04-06T04:06:02;15.48;;;11.52;;
3066;SDS011;1544;48.834;9.194;2023-04-06T04:08:37;16.83;;;11.52;;
3066;SDS011;1544;48.834;9.194;2023-04-06T04:11:12;14.30;;;11.93;;
3066;SDS011;1544;48.834;9.194;2023-04-06T04:13:48;15.35;;;12.10;;
3066;SDS011;1544;48.834;9.194;2023-04-06T04:16:24;13.63;;;11.25;;
3066;SDS011;1544;48.834;9.194;2023-04-06T04:19:00;14.75;;;10.65;;
3066;SDS011;1544;48.834;9.194;2023-04-06T04:21:41;17.10;;;11.52;;
3066;SDS011;1544;48.834;9.194;2023-04-06T04:24:22;13.93;;;10.40;;
3066;SDS011;1544;48.834;9.194;2023-04-06T04:26:57;16.42;;;11.77;;
3066;SDS011;1544;48.834;9.194;2023-04-06T04:29:32;14.38;;;12.38;;
3066;SDS011;1544;48.834;9.194;2023-04-06T04:32:11;20.80;;;12.73;;
3066;SDS011;1544;48.834;9.194;2023-04-06T04:34:47;17.67;;;12.50;;
3066;SDS011;1544;48.834;9.194;2023-04-06T04:37:35;15.25;;;11.82;;
3066;SDS011;1544;48.834;9.194;2023-04-06T04:40:11;15.80;;;12.15;;
3066;SDS011;1544;48.834;9.194;2023-04-06T04:43:00;16.73;;;11.82;;
3066;SDS011;1544;48.834;9.194;2023-04-06T04:45:39;18.17;;;11.65;;
3066;SDS011;1544;48.834;9.194;2023-04-06T04:48:24;15.75;;;12.07;;
3066;SDS011;1544;48.834;9.194;2023-04-06T04:51:05;18.60;;;11.90;;
3066;SDS011;1544;48.834;9.194;2023-04-06T04:53:54;16.80;;;12.07;;
3066;SDS011;1544;48.834;9.194;2023-04-06T04:56:37;15.88;;;12.23;;
3066;SDS011;1544;48.834;9.194;2023-04-06T04:59:28;18.80;;;11.95;;
3066;SDS011;1544;48.834;9.194;2023-04-06T05:02:14;15.32;;;12.20;;
3066;SDS011;1544;48.834;9.194;2023-04-06T05:04:59;16.80;;;12.35;;
3066;SDS011;1544;48.834;9.194;2023-04-06T05:07:35;17.10;;;12.32;;
3066;SDS011;1544;48.834;9.194;2023-04-06T05:10:12;17.20;;;13.45;;
3066;SDS011;1544;48.834;9.194;2023-04-06T05:13:01;17.55;;;11.90;;
3066;SDS011;1544;48.834;9.194;2023-04-06T05:15:37;15.95;;;13.00;;
3066;SDS011;1544;48.834;9.194;2023-04-06T05:18:25;15.20;;;11.68;;
3066;SDS011;1544;48.834;9.194;2023-04-06T05:21:01;17.65;;;13.18;;
3066;SDS011;1544;48.834;9.194;2023-04-06T05:23:48;18.08;;;12.45;;
3066;SDS011;1544;48.834;9.194;2023-04-06T05:26:23;18.35;;;13.13;;
3066;SDS011;1544;48.834;9.194;2023-04-06T05:29:02;18.45;;;13.50;;
3066;SDS011;1544;48.834;9.194;2023-04-06T05:31:40;14.85;;;12.07;;
3066;SDS011;1544;48.834;9.194;2023-04-06T05:34:16;16.17;;;11.98;;
3066;SDS011;1544;48.834;9.194;2023-04-06T05:36:52;16.98;;;12.68;;
3066;SDS011;1544;48.834;9.194;2023-04-06T05:39:30;17.92;;;12.05;;
3066;SDS011;1544;48.834;9.194;2023-04-06T05:42:06;19.73;;;13.88;;
3066;SDS011;1544;48.834;9.194;2023-04-06T05:44:57;15.15;;;12.32;;
3066;SDS011;1544;48.834;9.194;2023-04-06T05:47:33;17.10;;;13.38;;
3066;SDS011;1544;48.834;9.194;2023-04-06T05:50:17;18.92;;;13.18;;
3066;SDS011;1544;48.834;9.194;2023-04-06T05:52:53;16.60;;;13.00;;
3066;SDS011;1544;48.834;9.194;2023-04-06T05:55:30;18.00;;;12.70;;
3066;SDS011;1544;48.834;9.194;2023-04-06T05:58:17;17.77;;;13.02;;
3066;SDS011;1544;48.834;9.194;2023-04-06T06:01:00;18.33;;;13.13;;
3066;SDS011;1544;48.834;9.194;2023-04-06T06:03:44;21.58;;;12.88;;
3066;SDS011;1544;48.834;9.194;2023-04-06T06:06:20;17.00;;;12.43;;
3066;SDS011;1544;48.834;9.194;2023-04-06T06:09:10;16.03;;;12.17;;
3066;SDS011;1544;48.834;9.194;2023-04-06T06:11:52;20.63;;;13.65;;
3066;SDS011;1544;48.834;9.194;2023-04-06T06:14:31;17.48;;;13.35;;
3066;SDS011;1544;48.834;9.194;2023-04-06T06:17:06;16.43;;;11.90;;
3066;SDS011;1544;48.834;9.194;2023-04-06T06:19:41;17.42;;;13.48;;
3066;SDS011;1544;48.834;9.194;2023-04-06T06:22:16;19.30;;;13.30;;
3066;SDS011;1544;48.834;9.194;2023-04-06T06:24:53;19.00;;;13.60;;
3066;SDS011;1544;48.834;9.194;2023-04-06T06:27:29;18.07;;;14.00;;
3066;SDS011;1544;48.834;9.194;2023-04-06T06:30:04;18.90;;;14.53;;
3066;SDS011;1544;48.834;9.194;2023-04-06T06:32:43;14.60;;;12.80;;
3066;SDS011;1544;48.834;9.194;2023-04-06T06:35:18;18.47;;;13.53;;
3066;SDS011;1544;48.834;9.194;2023-04-06T06:37:54;18.50;;;13.93;;
3066;SDS011;1544;48.834;9.194;2023-04-06T06:40:33;18.73;;;13.43;;
3066;SDS011;1544;48.834;9.194;2023-04-06T06:43:09;18.53;;;12.87;;
3066;SDS011;1544;48.834;9.194;2023-04-06T06:45:57;14.33;;;11.90;;
3066;SDS011;1544;48.834;9.194;2023-04-06T06:48:33;14.10;;;12.20;;
3066;SDS011;1544;48.834;9.194;2023-04-06T06:51:08;19.40;;;13.00;;
3066;SDS011;1544;48.834;9.194;2023-04-06T06:53:43;18.10;;;11.80;;
3066;SDS011;1544;48.834;9.194;2023-04-06T06:56:18;16.63;;;13.17;;
3066;SDS011;1544;48.834;9.194;2023-04-06T06:58:54;17.30;;;12.83;;
3066;SDS011;1544;48.834;9.194;2023-04-06T07:01:29;16.20;;;11.73;;
3066;SDS011;1544;48.834;9.194;2023-04-06T07:04:06;18.77;;;14.10;;
3066;SDS011;1544;48.834;9.194;2023-04-06T07:06:43;13.93;;;11.63;;
3066;SDS011;1544;48.834;9.194;2023-04-06T07:09:18;18.03;;;12.63;;
3066;SDS011;1544;48.834;9.194;2023-04-06T07:11:54;16.67;;;12.33;;
3066;SDS011;1544;48.834;9.194;2023-04-06T07:14:30;19.20;;;13.53;;
3066;SDS011;1544;48.834;9.194;2023-04-06T07:17:06;20.40;;;13.77;;
3066;SDS011;1544;48.834;9.194;2023-04-06T07:19:41;14.40;;;12.03;;
3066;SDS011;1544;48.834;9.194;2023-04-06T07:22:16;18.20;;;11.90;;
3066;SDS011;1544;48.834;9.194;2023-04-06T07:24:51;14.40;;;11.47;;
3066;SDS011;1544;48.834;9.194;2023-04-06T07:27:26;20.20;;;13.17;;
3066;SDS011;1544;48.834;9.194;2023-04-06T07:30:02;14.73;;;11.00;;
3066;SDS011;1544;48.834;9.194;2023-04-06T07:32:38;19.40;;;14.10;;
3066;SDS011;1544;48.834;9.194;2023-04-06T07:35:13;18.07;;;11.90;;
3066;SDS011;1544;48.834;9.194;2023-04-06T07:37:49;12.03;;;10.80;;
3066;SDS011;1544;48.834;9.194;2023-04-06T07:40:25;15.73;;;11.87;;
3066;SDS011;1544;48.834;9.194;2023-04-06T07:43:02;15.60;;;11.37;;
3066;SDS011;1544;48.834;9.194;2023-04-06T07:45:38;14.60;;;11.37;;
3066;SDS011;1544;48.834;9.194;2023-04-06T07:48:13;14.67;;;11.03;;
3066;SDS011;1544;48.834;9.194;2023-04-06T07:50:48;13.63;;;10.60;;
3066;SDS011;1544;48.834;9.194;2023-04-06T07:53:27;13.80;;;11.40;;
3066;SDS011;1544;48.834;9.194;2023-04-06T07:56:02;15.63;;;11.33;;
3066;SDS011;1544;48.834;9.194;2023-04-06T07:58:37;12.87;;;10.67;;
3066;SDS011;1544;48.834;9.194;2023-04-06T08:01:12;11.77;;;10.57;;
3066;SDS011;1544;48.834;9.194;2023-04-06T08:03:47;12.90;;;11.20;;
3066;SDS011;1544;48.834;9.194;2023-04-06T08:06:23;12.40;;;10.87;;
3066;SDS011;1544;48.834;9.194;2023-04-06T08:08:58;12.20;;;9.80;;
3066;SDS011;1544;48.834;9.194;2023-04-06T08:11:33;14.20;;;9.73;;
3066;SDS011;1544;48.834;9.194;2023-04-06T08:14:08;14.93;;;11.17;;
3066;SDS011;1544;48.834;9.194;2023-04-06T08:16:44;13.20;;;10.23;;
3066;SDS011;1544;48.834;9.194;2023-04-06T08:19:19;13.70;;;9.13;;
3066;SDS011;1544;48.834;9.194;2023-04-06T08:21:54;11.07;;;9.70;;
3066;SDS011;1544;48.834;9.194;2023-04-06T08:24:29;10.27;;;9.27;;
3066;SDS011;1544;48.834;9.194;2023-04-06T08:27:04;10.60;;;9.20;;
3066;SDS011;1544;48.834;9.194;2023-04-06T08:29:40;13.77;;;10.10;;
3066;SDS011;1544;48.834;9.194;2023-04-06T08:32:15;11.70;;;9.10;;
3066;SDS011;1544;48.834;9.194;2023-04-06T08:34:53;12.80;;;10.40;;
3066;SDS011;1544;48.834;9.194;2023-04-06T08:37:29;10.50;;;8.87;;
3066;SDS011;1544;48.834;9.194;2023-04-06T08:40:04;10.70;;;9.00;;
3066;SDS011;1544;48.834;9.194;2023-04-06T08:42:40;11.13;;;9.60;;
3066;SDS011;1544;48.834;9.194;2023-04-06T08:45:24;10.80;;;9.33;;
3066;SDS011;1544;48.834;9.194;2023-04-06T08:47:59;12.47;;;10.30;;
3066;SDS011;1544;48.834;9.194;2023-04-06T08:50:37;11.63;;;10.13;;
3066;SDS011;1544;48.834;9.194;2023-04-06T08:53:13;15.10;;;10.60;;
3066;SDS011;1544;48.834;9.194;2023-04-06T08:55:52;11.20;;;9.93;;
3066;SDS011;1544;48.834;9.194;2023-04-06T08:58:34;10.27;;;8.87;;
3066;SDS011;1544;48.834;9.194;2023-04-06T09:01:12;11.20;;;9.60;;
3066;SDS011;1544;48.834;9.194;2023-04-06T09:03:49;9.70;;;8.47;;
3066;SDS011;1544;48.834;9.194;2023-04-06T09:06:30;13.87;;;8.60;;
3066;SDS011;1544;48.834;9.194;2023-04-06T09:09:05;11.00;;;8.40;;
3066;SDS011;1544;48.834;9.194;2023-04-06T09:11:42;8.03;;;7.23;;
3066;SDS011;1544;48.834;9.194;2023-04-06T09:14:34;8.60;;;7.30;;
3066;SDS011;1544;48.834;9.194;2023-04-06T09:17:20;7.60;;;6.80;;
3066;SDS011;1544;48.834;9.194;2023-04-06T09:20:00;8.83;;;7.90;;
3066;SDS011;1544;48.834;9.194;2023-04-06T09:22:37;9.40;;;7.13;;
3066;SDS011;1544;48.834;9.194;2023-04-06T09:25:18;7.63;;;6.83;;
3066;SDS011;1544;48.834;9.194;2023-04-06T09:27:58;10.30;;;9.20;;
3066;SDS011;1544;48.834;9.194;2023-04-06T09:30:47;9.33;;;7.57;;
3066;SDS011;1544;48.834;9.194;2023-04-06T09:33:23;7.80;;;6.47;;
3066;SDS011;1544;48.834;9.194;2023-04-06T09:35:58;9.80;;;7.37;;
3066;SDS011;1544;48.834;9.194;2023-04-06T09:38:33;7.33;;;6.63;;
3066;SDS011;1544;48.834;9.194;2023-04-06T09:41:08;7.67;;;6.87;;
3066;SDS011;1544;48.834;9.194;2023-04-06T09:43:43;11.70;;;8.37;;
3066;SDS011;1544;48.834;9.194;2023-04-06T09:46:20;10.57;;;8.30;;
3066;SDS011;1544;48.834;9.194;2023-04-06T09:48:56;8.80;;;6.87;;
3066;SDS011;1544;48.834;9.194;2023-04-06T09:54:18;8.40;;;7.03;;
3066;SDS011;1544;48.834;9.194;2023-04-06T09:57:01;8.63;;;7.77;;
3066;SDS011;1544;48.834;9.194;2023-04-06T10:02:48;8.27;;;7.37;;
3066;SDS011;1544;48.834;9.194;2023-04-06T10:05:56;7.13;;;6.43;;
3066;SDS011;1544;48.834;9.194;2023-04-06T10:08:40;8.23;;;7.43;;
3066;SDS011;1544;48.834;9.194;2023-04-06T10:11:17;7.50;;;6.10;;
3066;SDS011;1544;48.834;9.194;2023-04-06T10:13:52;7.50;;;6.70;;
3066;SDS011;1544;48.834;9.194;2023-04-06T10:16:28;8.30;;;6.70;;
3066;SDS011;1544;48.834;9.194;2023-04-06T10:19:06;8.00;;;6.57;;
3066;SDS011;1544;48.834;9.194;2023-04-06T10:21:49;7.17;;;5.87;;
3066;SDS011;1544;48.834;9.194;2023-04-06T10:24:28;7.90;;;7.10;;
3066;SDS011;1544;48.834;9.194;2023-04-06T10:27:03;7.50;;;6.67;;
3066;SDS011;1544;48.834;9.194;2023-04-06T10:29:45;7.40;;;6.70;;
3066;SDS011;1544;48.834;9.194;2023-04-06T10:32:31;7.67;;;6.70;;
3066;SDS011;1544;48.834;9.194;2023-04-06T10:35:11;8.23;;;6.97;;
3066;SDS011;1544;48.834;9.194;2023-04-06T10:37:52;12.70;;;10.30;;
3066;SDS011;1544;48.834;9.194;2023-04-06T10:40:37;9.20;;;8.30;;
3066;SDS011;1544;48.834;9.194;2023-04-06T10:43:20;7.73;;;6.63;;
3066;SDS011;1544;48.834;9.194;2023-04-06T10:45:57;10.10;;;7.60;;
3066;SDS011;1544;48.834;9.194;2023-04-06T10:48:38;9.63;;;7.13;;
3066;SDS011;1544;48.834;9.194;2023-04-06T10:51:28;7.50;;;6.80;;
3066;SDS011;1544;48.834;9.194;2023-04-06T10:54:06;7.93;;;6.50;;
3066;SDS011;1544;48.834;9.194;2023-04-06T10:56:42;8.50;;;6.03;;
3066;SDS011;1544;48.834;9.194;2023-04-06T10:59:20;10.23;;;6.57;;
3066;SDS011;1544;48.834;9.194;2023-04-06T11:01:56;9.77;;;7.47;;
3066;SDS011;1544;48.834;9.194;2023-04-06T11:04:31;6.07;;;5.40;;
3066;SDS011;1544;48.834;9.194;2023-04-06T11:07:06;7.50;;;6.73;;
3066;SDS011;1544;48.834;9.194;2023-04-06T11:09:42;6.27;;;5.73;;
3066;SDS011;1544;48.834;9.194;2023-04-06T11:12:24;6.30;;;5.70;;
3066;SDS011;1544;48.834;9.194;2023-04-06T11:15:02;6.93;;;6.40;;
3066;SDS011;1544;48.834;9.194;2023-04-06T11:17:38;6.80;;;6.20;;
3066;SDS011;1544;48.834;9.194;2023-04-06T11:20:14;7.03;;;6.43;;
3066;SDS011;1544;48.834;9.194;2023-04-06T11:22:50;8.17;;;6.63;;
3066;SDS011;1544;48.834;9.194;2023-04-06T11:25:26;8.30;;;7.50;;
3066;SDS011;1544;48.834;9.194;2023-04-06T11:28:02;7.47;;;6.77;;
3066;SDS011;1544;48.834;9.194;2023-04-06T11:30:37;7.30;;;6.60;;
3066;SDS011;1544;48.834;9.194;2023-04-06T11:33:19;5.83;;;5.33;;
3066;SDS011;1544;48.834;9.194;2023-04-06T11:35:57;8.20;;;7.40;;
3066;SDS011;1544;48.834;9.194;2023-04-06T11:38:32;7.20;;;6.00;;
3066;SDS011;1544;48.834;9.194;2023-04-06T11:41:07;6.07;;;5.47;;
3066;SDS011;1544;48.834;9.194;2023-04-06T11:43:46;7.37;;;6.67;;
3066;SDS011;1544;48.834;9.194;2023-04-06T11:46:22;7.53;;;5.80;;
3066;SDS011;1544;48.834;9.194;2023-04-06T11:49:00;6.50;;;5.80;;
3066;SDS011;1544;48.834;9.194;2023-04-06T11:51:36;6.73;;;6.20;;
3066;SDS011;1544;48.834;9.194;2023-04-06T11:54:12;6.97;;;6.37;;
3066;SDS011;1544;48.834;9.194;2023-04-06T11:56:47;6.60;;;6.00;;
3066;SDS011;1544;48.834;9.194;2023-04-06T11:59:22;5.93;;;5.40;;
3066;SDS011;1544;48.834;9.194;2023-04-06T12:01:57;5.60;;;5.10;;
3066;SDS011;1544;48.834;9.194;2023-04-06T12:04:32;7.73;;;5.33;;
3066;SDS011;1544;48.834;9.194;2023-04-06T12:07:07;6.47;;;5.87;;
3066;SDS011;1544;48.834;9.194;2023-04-06T12:09:42;6.47;;;5.80;;
3066;SDS011;1544;48.834;9.194;2023-04-06T12:12:17;6.90;;;6.40;;
3066;SDS011;1544;48.834;9.194;2023-04-06T12:14:52;7.20;;;6.47;;
3066;SDS011;1544;48.834;9.194;2023-04-06T12:17:27;6.90;;;6.33;;
3066;SDS011;1544;48.834;9.194;2023-04-06T12:20:02;8.63;;;7.80;;
3066;SDS011;1544;48.834;9.194;2023-04-06T12:22:55;7.80;;;6.70;;
3066;SDS011;1544;48.834;9.194;2023-04-06T12:25:30;6.70;;;6.10;;
3066;SDS011;1544;48.834;9.194;2023-04-06T12:28:05;6.70;;;6.10;;
3066;SDS011;1544;48.834;9.194;2023-04-06T12:30:41;6.20;;;5.60;;
3066;SDS011;1544;48.834;9.194;2023-04-06T12:33:16;5.83;;;5.33;;
3066;SDS011;1544;48.834;9.194;2023-04-06T12:35:51;5.40;;;4.90;;
3066;SDS011;1544;48.834;9.194;2023-04-06T12:38:26;5.60;;;5.20;;
3066;SDS011;1544;48.834;9.194;2023-04-06T12:41:01;6.10;;;5.60;;
3066;SDS011;1544;48.834;9.194;2023-04-06T12:43:38;6.17;;;5.40;;
3066;SDS011;1544;48.834;9.194;2023-04-06T12:46:15;6.30;;;5.80;;
3066;SDS011;1544;48.834;9.194;2023-04-06T12:48:51;6.20;;;5.70;;
3066;SDS011;1544;48.834;9.194;2023-04-06T12:51:29;6.33;;;5.80;;
3066;SDS011;1544;48.834;9.194;2023-04-06T12:54:05;6.53;;;5.63;;
3066;SDS011;1544;48.834;9.194;2023-04-06T12:56:40;4.60;;;4.30;;
3066;SDS011;1544;48.834;9.194;2023-04-06T12:59:15;9.73;;;8.77;;
3066;SDS011;1544;48.834;9.194;2023-04-06T13:01:50;5.93;;;5.43;;
3066;SDS011;1544;48.834;9.194;2023-04-06T13:04:26;5.30;;;4.90;;
3066;SDS011;1544;48.834;9.194;2023-04-06T13:07:02;5.33;;;4.93;;
3066;SDS011;1544;48.834;9.194;2023-04-06T13:09:37;5.93;;;5.50;;
3066;SDS011;1544;48.834;9.194;2023-04-06T13:12:13;6.00;;;4.93;;
3066;SDS011;1544;48.834;9.194;2023-04-06T13:14:48;5.90;;;5.17;;
3066;SDS011;1544;48.834;9.194;2023-04-06T13:17:27;5.50;;;4.97;;
3066;SDS011;1544;48.834;9.194;2023-04-06T13:20:02;6.93;;;5.90;;
3066;SDS011;1544;48.834;9.194;2023-04-06T13:22:37;6.30;;;5.80;;
3066;SDS011;1544;48.834;9.194;2023-04-06T13:25:13;6.10;;;5.70;;
3066;SDS011;1544;48.834;9.194;2023-04-06T13:27:48;11.33;;;6.60;;
3066;SDS011;1544;48.834;9.194;2023-04-06T13:30:23;6.50;;;5.87;;
3066;SDS011;1544;48.834;9.194;2023-04-06T13:32:58;6.47;;;6.00;;
3066;SDS011;1544;48.834;9.194;2023-04-06T13:35:34;7.27;;;6.23;;
3066;SDS011;1544;48.834;9.194;2023-04-06T13:38:09;5.97;;;5.37;;
3066;SDS011;1544;48.834;9.194;2023-04-06T13:40:45;6.30;;;5.70;;
3066;SDS011;1544;48.834;9.194;2023-04-06T13:43:20;6.73;;;6.17;;
3066;SDS011;1544;48.834;9.194;2023-04-06T13:45:56;5.80;;;5.30;;
3066;SDS011;1544;48.834;9.194;2023-04-06T13:48:34;7.87;;;6.03;;
3066;SDS011;1544;48.834;9.194;2023-04-06T13:51:09;6.20;;;5.70;;
3066;SDS011;1544;48.834;9.194;2023-04-06T13:53:47;5.20;;;4.70;;
3066;SDS011;1544;48.834;9.194;2023-04-06T13:56:26;6.10;;;5.40;;
3066;SDS011;1544;48.834;9.194;2023-04-06T13:59:02;4.87;;;4.47;;
3066;SDS011;1544;48.834;9.194;2023-04-06T14:01:37;6.00;;;5.50;;
3066;SDS011;1544;48.834;9.194;2023-04-06T14:04:12;6.37;;;5.83;;
3066;SDS011;1544;48.834;9.194;2023-04-06T14:06:47;5.87;;;5.47;;
3066;SDS011;1544;48.834;9.194;2023-04-06T14:09:22;6.00;;;5.50;;
3066;SDS011;1544;48.834;9.194;2023-04-06T14:11:58;6.10;;;5.60;;
3066;SDS011;1544;48.834;9.194;2023-04-06T14:14:33;6.40;;;5.90;;
3066;SDS011;1544;48.834;9.194;2023-04-06T14:17:08;4.90;;;4.50;;
3066;SDS011;1544;48.834;9.194;2023-04-06T14:19:43;5.10;;;4.70;;
3066;SDS011;1544;48.834;9.194;2023-04-06T14:22:18;5.20;;;4.90;;
3066;SDS011;1544;48.834;9.194;2023-04-06T14:24:53;6.20;;;5.70;;
3066;SDS011;1544;48.834;9.194;2023-04-06T14:27:28;5.07;;;4.67;;
3066;SDS011;1544;48.834;9.194;2023-04-06T14:30:03;4.80;;;4.40;;
3066;SDS011;1544;48.834;9.194;2023-04-06T14:32:39;4.27;;;4.03;;
3066;SDS011;1544;48.834;9.194;2023-04-06T14:35:15;6.50;;;5.37;;
3066;SDS011;1544;48.834;9.194;2023-04-06T14:37:50;5.10;;;4.70;;
3066;SDS011;1544;48.834;9.194;2023-04-06T14:40:25;5.40;;;4.90;;
3066;SDS011;1544;48.834;9.194;2023-04-06T14:42:59;7.23;;;5.40;;
3066;SDS011;1544;48.834;9.194;2023-04-06T14:45:34;9.03;;;6.30;;
3066;SDS011;1544;48.834;9.194;2023-04-06T14:48:10;6.33;;;5.73;;
3066;SDS011;1544;48.834;9.194;2023-04-06T14:50:52;4.90;;;4.60;;
3066;SDS011;1544;48.834;9.194;2023-04-06T14:53:29;5.70;;;5.20;;
3066;SDS011;1544;48.834;9.194;2023-04-06T14:56:04;6.63;;;5.97;;
3066;SDS011;1544;48.834;9.194;2023-04-06T14:58:39;6.63;;;6.03;;
3066;SDS011;1544;48.834;9.194;2023-04-06T15:01:14;6.67;;;6.07;;
3066;SDS011;1544;48.834;9.194;2023-04-06T15:03:49;5.27;;;4.87;;
3066;SDS011;1544;48.834;9.194;2023-04-06T15:06:24;5.53;;;5.23;;
3066;SDS011;1544;48.834;9.194;2023-04-06T15:08:59;5.73;;;5.23;;
3066;SDS011;1544;48.834;9.194;2023-04-06T15:11:34;5.77;;;5.27;;
3066;SDS011;1544;48.834;9.194;2023-04-06T15:14:09;4.83;;;4.47;;
3066;SDS011;1544;48.834;9.194;2023-04-06T15:16:44;5.20;;;4.80;;
3066;SDS011;1544;48.834;9.194;2023-04-06T15:19:19;5.53;;;5.03;;
3066;SDS011;1544;48.834;9.194;2023-04-06T15:21:54;5.70;;;5.30;;
3066;SDS011;1544;48.834;9.194;2023-04-06T15:24:29;5.70;;;5.30;;
3066;SDS011;1544;48.834;9.194;2023-04-06T15:27:04;5.37;;;4.97;;
3066;SDS011;1544;48.834;9.194;2023-04-06T15:29:39;5.93;;;5.33;;
3066;SDS011;1544;48.834;9.194;2023-04-06T15:32:14;5.50;;;5.10;;
3066;SDS011;1544;48.834;9.194;2023-04-06T15:34:49;6.43;;;5.83;;
3066;SDS011;1544;48.834;9.194;2023-04-06T15:37:24;7.40;;;6.70;;
3066;SDS011;1544;48.834;9.194;2023-04-06T15:40:00;5.47;;;5.03;;
3066;SDS011;1544;48.834;9.194;2023-04-06T15:42:35;5.83;;;5.33;;
3066;SDS011;1544;48.834;9.194;2023-04-06T15:45:10;5.80;;;5.30;;
3066;SDS011;1544;48.834;9.194;2023-04-06T15:47:45;6.53;;;5.80;;
3066;SDS011;1544;48.834;9.194;2023-04-06T15:50:20;5.60;;;5.10;;
3066;SDS011;1544;48.834;9.194;2023-04-06T15:52:55;5.00;;;4.70;;
3066;SDS011;1544;48.834;9.194;2023-04-06T15:55:30;6.10;;;5.50;;
3066;SDS011;1544;48.834;9.194;2023-04-06T15:58:05;6.20;;;5.60;;
3066;SDS011;1544;48.834;9.194;2023-04-06T16:00:40;6.40;;;5.80;;
3066;SDS011;1544;48.834;9.194;2023-04-06T16:03:15;5.40;;;5.00;;
3066;SDS011;1544;48.834;9.194;2023-04-06T16:05:52;5.00;;;4.60;;
3066;SDS011;1544;48.834;9.194;2023-04-06T16:08:32;6.27;;;5.70;;
3066;SDS011;1544;48.834;9.194;2023-04-06T16:11:08;5.13;;;4.73;;